createdAt,value
2023-05-19T00:00:15.575Z,10.82
2023-05-19T00:02:45.131Z,9.27
2023-05-19T00:05:15.990Z,9.68
2023-05-19T00:07:46.388Z,11.98
2023-05-19T00:10:17.025Z,11.98
2023-05-19T00:12:46.207Z,11.68
2023-05-19T00:15:15.530Z,16.98
2023-05-19T00:17:44.486Z,12.25
2023-05-19T00:20:14.288Z,21.30
2023-05-19T00:22:45.019Z,12.10
2023-05-19T00:25:14.088Z,12.55
2023-05-19T00:27:43.159Z,10.65
2023-05-19T00:30:12.262Z,7.07
2023-05-19T00:32:41.239Z,5.45
2023-05-19T00:35:10.498Z,5.60
2023-05-19T00:37:39.477Z,7.82
2023-05-19T00:40:09.258Z,5.88
2023-05-19T00:42:38.318Z,4.57
2023-05-19T00:45:07.905Z,10.95
2023-05-19T00:47:36.971Z,5.70
2023-05-19T00:50:06.333Z,9.40
2023-05-19T00:52:35.448Z,4.50
2023-05-19T00:55:04.433Z,8.13
2023-05-19T00:57:36.109Z,7.97
2023-05-19T01:00:06.549Z,7.07
2023-05-19T01:02:36.355Z,6.82
2023-05-19T01:05:05.451Z,11.70
2023-05-19T01:07:35.309Z,10.30
2023-05-19T01:10:05.045Z,7.82
2023-05-19T01:12:33.930Z,10.20
2023-05-19T01:15:07.570Z,9.82
2023-05-19T01:17:57.730Z,8.85
2023-05-19T01:20:51.589Z,5.28
2023-05-19T01:23:29.698Z,10.70
2023-05-19T01:26:41.058Z,7.07
2023-05-19T01:29:28.273Z,3.60
2023-05-19T01:32:01.341Z,9.35
2023-05-19T01:34:32.583Z,6.78
2023-05-19T01:37:03.793Z,8.85
2023-05-19T01:39:34.499Z,6.45
2023-05-19T01:42:05.172Z,7.88
2023-05-19T01:44:35.238Z,5.22
2023-05-19T01:47:04.783Z,5.25
2023-05-19T01:49:33.814Z,7.97
2023-05-19T01:52:02.884Z,9.55
2023-05-19T01:54:31.834Z,7.55
2023-05-19T01:57:22.424Z,6.95
2023-05-19T02:00:13.075Z,6.47
2023-05-19T02:02:57.050Z,6.32
2023-05-19T02:05:54.478Z,5.65
2023-05-19T02:08:35.421Z,5.03
2023-05-19T02:11:27.586Z,10.80
2023-05-19T02:13:58.050Z,5.03
2023-05-19T02:16:29.910Z,4.28
2023-05-19T02:19:00.364Z,9.23
2023-05-19T02:21:29.212Z,10.23
2023-05-19T02:23:58.195Z,7.22
2023-05-19T02:26:27.086Z,4.88
2023-05-19T02:28:56.050Z,7.43
2023-05-19T02:31:26.372Z,5.85
2023-05-19T02:33:55.228Z,5.82
2023-05-19T02:36:24.218Z,6.28
2023-05-19T02:38:53.090Z,4.53
2023-05-19T02:41:23.115Z,6.65
2023-05-19T02:43:52.100Z,8.70
2023-05-19T02:46:21.668Z,5.82
2023-05-19T02:48:50.651Z,4.28
2023-05-19T02:51:19.480Z,7.97
2023-05-19T02:53:48.294Z,12.85
2023-05-19T02:56:17.373Z,7.32
2023-05-19T02:58:46.287Z,5.20
2023-05-19T03:01:15.834Z,4.32
2023-05-19T03:03:44.965Z,5.78
2023-05-19T03:06:15.098Z,3.83
2023-05-19T03:08:44.199Z,6.35
2023-05-19T03:11:13.630Z,7.18
2023-05-19T03:13:42.654Z,3.78
2023-05-19T03:16:12.758Z,4.32
2023-05-19T03:18:42.960Z,3.95
2023-05-19T03:21:12.124Z,6.03
2023-05-19T03:23:41.411Z,7.32
2023-05-19T03:26:11.476Z,5.32
2023-05-19T03:28:40.446Z,3.97
2023-05-19T03:31:09.312Z,3.72
2023-05-19T03:33:40.576Z,4.53
2023-05-19T03:36:09.766Z,6.93
2023-05-19T03:38:42.934Z,6.60
2023-05-19T03:41:11.871Z,3.92
2023-05-19T03:43:40.713Z,5.90
2023-05-19T03:46:11.397Z,7.40
2023-05-19T03:48:57.726Z,3.40
2023-05-19T03:51:39.566Z,7.72
2023-05-19T03:54:23.273Z,6.90
2023-05-19T03:56:52.906Z,27.65
2023-05-19T03:59:21.946Z,12.35
2023-05-19T04:01:51.645Z,5.68
2023-05-19T04:04:20.806Z,5.55
2023-05-19T04:06:49.954Z,5.68
2023-05-19T04:09:20.273Z,4.10
2023-05-19T04:11:48.971Z,9.98
2023-05-19T04:14:18.000Z,19.50
2023-05-19T04:16:46.766Z,28.73
2023-05-19T04:19:15.752Z,14.65
2023-05-19T04:21:44.524Z,6.65
2023-05-19T04:24:13.633Z,6.13
2023-05-19T04:26:46.648Z,6.75
2023-05-19T04:29:18.811Z,8.57
2023-05-19T04:31:48.006Z,10.48
2023-05-19T04:34:20.622Z,7.32
2023-05-19T04:36:53.073Z,6.75
2023-05-19T04:39:25.716Z,4.03
2023-05-19T04:41:55.184Z,5.38
2023-05-19T04:44:25.505Z,4.70
2023-05-19T04:46:54.911Z,8.00
2023-05-19T04:49:25.215Z,6.53
2023-05-19T04:51:55.799Z,5.05
2023-05-19T04:54:29.512Z,7.28
2023-05-19T04:56:58.607Z,11.48
2023-05-19T04:59:30.418Z,5.15
2023-05-19T05:01:59.872Z,7.28
2023-05-19T05:04:31.456Z,3.10
2023-05-19T05:07:00.472Z,5.22
2023-05-19T05:09:30.674Z,5.43
2023-05-19T05:12:02.862Z,4.45
2023-05-19T05:14:32.440Z,8.57
2023-05-19T05:17:02.337Z,7.55
2023-05-19T05:19:32.284Z,5.45
2023-05-19T05:22:01.759Z,4.55
2023-05-19T05:24:32.659Z,5.72
2023-05-19T05:27:04.789Z,2.90
2023-05-19T05:29:34.785Z,12.43
2023-05-19T05:32:05.820Z,11.13
2023-05-19T05:34:36.481Z,4.70
2023-05-19T05:37:06.743Z,4.35
2023-05-19T05:39:36.798Z,7.57
2023-05-19T05:42:06.687Z,7.07
2023-05-19T05:44:36.439Z,9.63
2023-05-19T05:47:07.406Z,6.78
2023-05-19T05:49:39.030Z,6.57
2023-05-19T05:52:10.266Z,4.78
2023-05-19T05:54:44.782Z,3.13
2023-05-19T05:57:16.364Z,8.85
2023-05-19T05:59:47.904Z,4.90
2023-05-19T06:02:19.040Z,11.15
2023-05-19T06:04:48.028Z,6.50
2023-05-19T06:07:16.935Z,12.50
2023-05-19T06:09:46.754Z,9.68
2023-05-19T06:12:16.970Z,7.30
2023-05-19T06:14:49.661Z,4.15
2023-05-19T06:17:55.237Z,7.38
2023-05-19T06:20:24.369Z,3.47
2023-05-19T06:22:53.190Z,7.68
2023-05-19T06:25:25.505Z,8.23
2023-05-19T06:27:55.186Z,6.30
2023-05-19T06:30:27.371Z,6.05
2023-05-19T06:33:19.397Z,4.13
2023-05-19T06:35:48.484Z,8.07
2023-05-19T06:38:17.644Z,8.23
2023-05-19T06:40:46.484Z,5.35
2023-05-19T06:43:15.672Z,8.88
2023-05-19T06:45:58.262Z,7.85
2023-05-19T06:48:27.653Z,7.38
2023-05-19T06:50:57.224Z,6.47
2023-05-19T06:53:26.793Z,5.18
2023-05-19T06:56:00.022Z,5.07
2023-05-19T06:58:33.927Z,10.68
2023-05-19T07:01:06.004Z,7.90
2023-05-19T07:03:41.013Z,6.43
2023-05-19T07:06:10.948Z,4.97
2023-05-19T07:08:39.712Z,4.55
2023-05-19T07:11:09.892Z,5.88
2023-05-19T07:13:39.180Z,3.78
2023-05-19T07:16:08.229Z,5.28
2023-05-19T07:18:37.244Z,8.68
2023-05-19T07:21:06.396Z,5.88
2023-05-19T07:23:35.491Z,6.20
2023-05-19T07:26:04.284Z,8.07
2023-05-19T07:28:35.196Z,4.43
2023-05-19T07:31:04.108Z,7.00
2023-05-19T07:33:33.004Z,9.02
2023-05-19T07:36:01.853Z,6.18
2023-05-19T07:38:35.224Z,7.80
2023-05-19T07:41:04.328Z,3.63
2023-05-19T07:43:33.372Z,5.72
2023-05-19T07:46:02.250Z,2.50
2023-05-19T07:48:34.452Z,5.68
2023-05-19T07:51:03.595Z,6.07
2023-05-19T07:53:32.550Z,6.78
2023-05-19T07:56:01.765Z,6.55
2023-05-19T07:58:30.809Z,6.10
2023-05-19T08:01:00.472Z,3.38
2023-05-19T08:03:31.394Z,5.95
2023-05-19T08:06:00.385Z,9.43
2023-05-19T08:08:29.086Z,8.00
2023-05-19T08:10:57.903Z,14.25
2023-05-19T08:13:26.838Z,7.65
2023-05-19T08:16:00.390Z,6.05
2023-05-19T08:18:29.427Z,8.95
2023-05-19T08:20:58.185Z,10.23
2023-05-19T08:23:27.343Z,6.65
2023-05-19T08:25:56.552Z,6.93
2023-05-19T08:28:25.664Z,2.92
2023-05-19T08:30:54.412Z,5.90
2023-05-19T08:33:23.718Z,4.90
2023-05-19T08:35:56.407Z,3.67
2023-05-19T08:38:26.934Z,3.20
2023-05-19T08:40:56.215Z,3.10
2023-05-19T08:43:25.058Z,2.90
2023-05-19T08:45:54.985Z,4.60
2023-05-19T08:48:24.270Z,5.93
2023-05-19T08:51:26.684Z,5.05
2023-05-19T08:54:03.191Z,6.22
2023-05-19T08:56:35.505Z,7.93
2023-05-19T08:59:04.800Z,5.63
2023-05-19T09:01:34.207Z,11.20
2023-05-19T09:04:07.555Z,7.47
2023-05-19T09:06:36.402Z,8.50
2023-05-19T09:09:09.285Z,33.80
2023-05-19T09:11:38.611Z,5.57
2023-05-19T09:14:07.563Z,6.10
2023-05-19T09:16:36.442Z,10.80
2023-05-19T09:19:05.478Z,11.95
2023-05-19T09:21:34.601Z,7.88
2023-05-19T09:24:07.616Z,6.32
2023-05-19T09:26:44.132Z,9.27
2023-05-19T09:29:17.848Z,10.77
2023-05-19T09:32:06.857Z,7.37
2023-05-19T09:34:43.013Z,5.28
2023-05-19T09:37:14.193Z,9.82
2023-05-19T09:39:49.342Z,5.13
2023-05-19T09:42:19.918Z,5.35
2023-05-19T09:44:49.094Z,4.63
2023-05-19T09:47:18.201Z,5.72
2023-05-19T09:49:53.322Z,6.72
2023-05-19T09:52:22.865Z,12.52
2023-05-19T09:54:52.623Z,7.07
2023-05-19T09:57:30.261Z,11.68
2023-05-19T10:00:01.148Z,3.40
2023-05-19T10:02:33.949Z,4.20
2023-05-19T10:05:05.397Z,3.22
2023-05-19T10:07:35.408Z,5.63
2023-05-19T10:10:04.488Z,3.83
2023-05-19T10:12:34.242Z,7.45
2023-05-19T10:15:04.084Z,5.60
2023-05-19T10:17:35.510Z,8.63
2023-05-19T10:20:06.020Z,6.82
2023-05-19T10:22:35.482Z,11.55
2023-05-19T10:25:05.206Z,6.78
2023-05-19T10:27:39.944Z,14.07
2023-05-19T10:30:51.679Z,6.68
2023-05-19T10:33:29.781Z,11.63
2023-05-19T10:36:03.536Z,6.32
2023-05-19T10:39:19.993Z,5.22
2023-05-19T10:42:35.661Z,12.23
2023-05-19T10:45:21.271Z,4.00
2023-05-19T10:47:52.511Z,7.35
2023-05-19T10:50:21.940Z,6.45
2023-05-19T10:52:57.783Z,10.90
2023-05-19T10:55:54.122Z,8.68
2023-05-19T10:58:42.251Z,9.80
2023-05-19T11:01:18.210Z,6.47
2023-05-19T11:03:52.999Z,6.90
2023-05-19T11:06:29.923Z,10.45
2023-05-19T11:09:11.166Z,7.00
2023-05-19T11:11:55.719Z,5.95
2023-05-19T11:14:28.083Z,5.05
2023-05-19T11:17:01.267Z,7.63
2023-05-19T11:19:32.359Z,9.00
2023-05-19T11:22:12.246Z,5.38
2023-05-19T11:24:55.091Z,8.20
2023-05-19T11:27:28.051Z,5.18
2023-05-19T11:30:00.028Z,5.53
2023-05-19T11:32:34.485Z,5.10
2023-05-19T11:37:34.125Z,9.82
2023-05-19T11:40:08.143Z,4.40
2023-05-19T11:42:37.856Z,5.10
2023-05-19T11:45:07.944Z,7.20
2023-05-19T11:47:50.869Z,11.93
2023-05-19T11:50:26.866Z,8.13
2023-05-19T11:52:58.386Z,15.48
2023-05-19T11:55:27.774Z,11.93
2023-05-19T11:58:03.882Z,5.40
2023-05-19T12:00:40.257Z,10.60
2023-05-19T12:03:10.099Z,11.93
2023-05-19T12:05:43.703Z,6.63
2023-05-19T12:08:13.952Z,6.95
2023-05-19T12:10:43.036Z,15.52
2023-05-19T12:13:12.142Z,10.73
2023-05-19T12:15:40.926Z,6.45
2023-05-19T12:18:10.547Z,9.48
2023-05-19T12:20:40.214Z,7.40
2023-05-19T12:23:10.644Z,5.78
2023-05-19T12:25:39.583Z,12.70
2023-05-19T12:28:08.704Z,6.45
2023-05-19T12:30:41.011Z,8.63
2023-05-19T12:33:10.513Z,10.52
2023-05-19T12:35:39.423Z,16.55
2023-05-19T12:38:08.771Z,18.00
2023-05-19T12:40:40.192Z,16.88
2023-05-19T12:43:10.799Z,13.18
2023-05-19T12:45:43.284Z,10.65
2023-05-19T12:48:18.912Z,10.57
2023-05-19T12:50:48.010Z,7.93
2023-05-19T12:53:17.223Z,7.72
2023-05-19T12:55:46.713Z,6.55
2023-05-19T12:58:17.098Z,12.05
2023-05-19T13:00:51.326Z,11.25
2023-05-19T13:03:21.735Z,7.78
2023-05-19T13:05:52.496Z,8.48
2023-05-19T13:08:24.988Z,10.73
2023-05-19T13:10:53.775Z,11.15
2023-05-19T13:13:22.889Z,12.85
2023-05-19T13:15:52.017Z,18.90
2023-05-19T13:18:21.263Z,13.27
2023-05-19T13:20:52.140Z,9.88
2023-05-19T13:23:21.476Z,9.65
2023-05-19T13:25:52.439Z,237.27
2023-05-19T13:28:21.486Z,131.43
2023-05-19T13:30:52.342Z,19.75
2023-05-19T13:33:21.163Z,30.65
2023-05-19T13:35:50.149Z,13.60
2023-05-19T13:38:19.640Z,16.40
2023-05-19T13:40:50.801Z,26.13
2023-05-19T13:43:19.778Z,30.17
2023-05-19T13:45:48.698Z,148.32
2023-05-19T13:48:18.113Z,52.67
2023-05-19T13:50:48.021Z,87.13
2023-05-19T13:53:17.008Z,33.83
2023-05-19T13:55:49.298Z,20.13
2023-05-19T13:58:20.492Z,20.20
2023-05-19T14:00:51.896Z,12.52
2023-05-19T14:03:20.967Z,11.77
2023-05-19T14:05:50.341Z,16.00
2023-05-19T14:08:19.943Z,30.75
2023-05-19T14:10:48.940Z,25.58
2023-05-19T14:13:32.025Z,168.38
2023-05-19T14:16:03.310Z,39.28
2023-05-19T14:18:33.337Z,34.28
2023-05-19T14:21:02.394Z,28.40
2023-05-19T14:23:32.021Z,25.02
2023-05-19T14:26:01.128Z,63.40
2023-05-19T14:28:35.256Z,67.20
2023-05-19T14:31:04.466Z,35.40
2023-05-19T14:33:35.631Z,59.70
2023-05-19T14:36:06.017Z,49.88
2023-05-19T14:38:35.343Z,37.17
2023-05-19T14:41:04.557Z,35.67
2023-05-19T14:43:34.416Z,25.00
2023-05-19T14:46:03.279Z,34.95
2023-05-19T14:48:32.925Z,55.22
2023-05-19T14:51:02.141Z,51.72
2023-05-19T14:53:31.117Z,46.28
2023-05-19T14:56:00.195Z,42.67
2023-05-19T14:58:29.499Z,30.95
2023-05-19T15:00:59.991Z,31.27
2023-05-19T15:03:29.153Z,29.52
2023-05-19T15:05:58.080Z,26.73
2023-05-19T15:08:27.498Z,39.22
2023-05-19T15:10:56.481Z,35.05
2023-05-19T15:13:26.961Z,218.02
2023-05-19T15:16:08.242Z,61.40
2023-05-19T15:18:45.398Z,78.20
2023-05-19T15:21:14.299Z,84.22
2023-05-19T15:23:43.756Z,84.38
2023-05-19T15:26:13.662Z,68.82
2023-05-19T15:28:42.930Z,55.33
2023-05-19T15:31:11.987Z,59.95
2023-05-19T15:33:41.160Z,68.72
2023-05-19T15:36:10.278Z,74.90
2023-05-19T15:38:39.184Z,145.23
2023-05-19T15:41:09.396Z,160.80
2023-05-19T15:43:38.561Z,92.30
2023-05-19T15:46:07.682Z,104.13
2023-05-19T15:48:36.492Z,95.82
2023-05-19T15:51:05.642Z,81.78
2023-05-19T15:53:34.918Z,98.88
2023-05-19T15:56:04.838Z,67.65
2023-05-19T15:58:33.785Z,58.67
2023-05-19T16:01:02.999Z,56.88
2023-05-19T16:03:31.929Z,70.82
2023-05-19T16:06:03.784Z,56.00
2023-05-19T16:08:32.862Z,63.00
2023-05-19T16:11:01.932Z,75.72
2023-05-19T16:13:31.666Z,67.03
2023-05-19T16:16:01.034Z,106.93
2023-05-19T16:18:33.029Z,61.65
2023-05-19T16:21:01.760Z,58.92
2023-05-19T16:23:30.954Z,128.90
2023-05-19T16:26:02.019Z,156.88
2023-05-19T16:28:31.163Z,75.72
2023-05-19T16:31:01.301Z,85.03
2023-05-19T16:33:30.964Z,121.93
2023-05-19T16:36:03.005Z,78.97
2023-05-19T16:38:32.064Z,92.57
2023-05-19T16:41:00.844Z,84.15
2023-05-19T16:43:29.951Z,91.32
2023-05-19T16:45:58.739Z,92.88
2023-05-19T16:48:27.544Z,105.15
2023-05-19T16:50:56.384Z,143.30
2023-05-19T16:53:25.567Z,100.50
2023-05-19T16:55:55.281Z,114.25
2023-05-19T16:58:24.621Z,57.92
2023-05-19T17:00:54.008Z,55.30
2023-05-19T17:03:26.291Z,152.23
2023-05-19T17:05:55.454Z,240.65
2023-05-19T17:08:24.362Z,65.28
2023-05-19T17:10:53.229Z,89.65
2023-05-19T17:13:22.237Z,51.58
2023-05-19T17:15:53.705Z,55.33
2023-05-19T17:18:23.556Z,62.90
2023-05-19T17:20:52.261Z,151.38
2023-05-19T17:23:22.388Z,155.80
2023-05-19T17:25:56.397Z,100.68
2023-05-19T17:28:25.360Z,83.67
2023-05-19T17:30:54.513Z,102.45
2023-05-19T17:33:23.671Z,76.78
2023-05-19T17:35:55.574Z,110.55
2023-05-19T17:38:24.807Z,169.50
2023-05-19T17:40:54.779Z,99.25
2023-05-19T17:43:23.809Z,79.53
2023-05-19T17:45:55.362Z,62.28
2023-05-19T17:48:24.770Z,63.72
2023-05-19T17:50:53.861Z,72.30
2023-05-19T17:53:22.952Z,85.50
2023-05-19T17:55:59.184Z,86.18
2023-05-19T17:58:29.116Z,77.45
2023-05-19T18:00:58.228Z,50.92
2023-05-19T18:03:27.489Z,47.65
2023-05-19T18:05:56.852Z,49.30
2023-05-19T18:08:26.572Z,47.85
2023-05-19T18:10:56.811Z,47.72
2023-05-19T18:13:26.954Z,46.75
2023-05-19T18:15:56.000Z,40.65
2023-05-19T18:18:25.132Z,47.92
2023-05-19T18:20:55.651Z,42.20
2023-05-19T18:23:24.622Z,39.40
2023-05-19T18:25:53.897Z,45.90
2023-05-19T18:28:23.881Z,42.20
2023-05-19T18:31:06.013Z,40.63
2023-05-19T18:33:34.945Z,36.95
2023-05-19T18:36:03.932Z,36.38
2023-05-19T18:38:33.552Z,38.78
2023-05-19T18:41:02.539Z,36.55
2023-05-19T18:43:33.056Z,38.67
2023-05-19T18:46:02.029Z,75.97
2023-05-19T18:48:31.056Z,93.28
2023-05-19T18:51:00.730Z,46.28
2023-05-19T18:53:29.589Z,41.92
2023-05-19T18:55:58.374Z,36.40
2023-05-19T18:58:27.692Z,36.72
2023-05-19T19:00:57.207Z,39.20
2023-05-19T19:03:26.321Z,156.25
2023-05-19T19:05:59.756Z,37.03
2023-05-19T19:08:32.264Z,211.48
2023-05-19T19:11:02.122Z,84.90
2023-05-19T19:13:31.610Z,52.92
2023-05-19T19:16:05.931Z,59.53
2023-05-19T19:18:36.700Z,68.38
2023-05-19T19:21:06.319Z,62.53
2023-05-19T19:23:36.371Z,119.72
2023-05-19T19:26:05.456Z,104.10
2023-05-19T19:28:34.371Z,52.47
2023-05-19T19:31:03.299Z,31.58
2023-05-19T19:33:32.213Z,37.88
2023-05-19T19:36:02.031Z,50.05
2023-05-19T19:38:31.014Z,174.23
2023-05-19T19:40:59.833Z,260.25
2023-05-19T19:43:28.681Z,39.50
2023-05-19T19:46:05.201Z,32.35
2023-05-19T19:48:34.154Z,30.10
2023-05-19T19:51:03.018Z,26.42
2023-05-19T19:53:34.288Z,29.45
2023-05-19T19:56:05.226Z,26.27
2023-05-19T19:58:34.098Z,27.60
2023-05-19T20:01:06.942Z,33.63
2023-05-19T20:03:36.850Z,29.98
2023-05-19T20:06:08.599Z,27.40
2023-05-19T20:08:37.638Z,24.85
2023-05-19T20:11:07.424Z,24.75
2023-05-19T20:13:36.478Z,33.00
2023-05-19T20:16:05.334Z,32.03
2023-05-19T20:18:34.594Z,25.13
2023-05-19T20:21:03.225Z,23.30
2023-05-19T20:23:32.612Z,30.75
2023-05-19T20:28:38.937Z,65.80
2023-05-19T20:31:10.422Z,44.78
2023-05-19T20:33:39.601Z,35.85
2023-05-19T20:36:08.850Z,43.63
2023-05-19T20:38:37.721Z,29.85
2023-05-19T20:41:06.432Z,29.52
2023-05-19T20:43:35.632Z,23.05
2023-05-19T20:46:05.216Z,21.33
2023-05-19T20:48:36.280Z,19.85
2023-05-19T20:51:05.359Z,21.42
2023-05-19T20:53:34.378Z,29.48
2023-05-19T20:56:03.320Z,28.38
2023-05-19T20:58:32.337Z,18.83
2023-05-19T21:01:01.270Z,17.48
2023-05-19T21:03:31.431Z,18.35
2023-05-19T21:06:01.459Z,18.40
2023-05-19T21:08:30.551Z,31.02
2023-05-19T21:11:00.171Z,27.27
2023-05-19T21:13:29.232Z,94.93
2023-05-19T21:15:58.052Z,28.35
2023-05-19T21:18:26.937Z,35.05
2023-05-19T21:20:55.927Z,59.28
2023-05-19T21:23:24.915Z,93.15
2023-05-19T21:25:53.944Z,26.25
2023-05-19T21:28:22.803Z,22.20
2023-05-19T21:30:51.755Z,19.25
2023-05-19T21:33:20.600Z,33.60
2023-05-19T21:35:49.571Z,23.42
2023-05-19T21:38:23.798Z,18.88
2023-05-19T21:40:53.974Z,36.75
2023-05-19T21:43:23.100Z,20.85
2023-05-19T21:45:51.977Z,18.95
2023-05-19T21:48:20.924Z,15.77
2023-05-19T21:50:56.721Z,17.63
2023-05-19T21:53:26.428Z,21.27
2023-05-19T21:55:55.467Z,28.58
2023-05-19T21:58:24.970Z,24.45
2023-05-19T22:00:57.670Z,19.95
2023-05-19T22:03:27.074Z,20.92
2023-05-19T22:05:56.653Z,22.33
2023-05-19T22:08:26.788Z,19.45
2023-05-19T22:10:55.951Z,13.57
2023-05-19T22:13:24.551Z,18.15
2023-05-19T22:15:53.741Z,13.50
2023-05-19T22:18:22.893Z,14.75
2023-05-19T22:20:51.714Z,14.60
2023-05-19T22:23:20.623Z,14.18
2023-05-19T22:25:49.564Z,14.32
2023-05-19T22:28:18.401Z,15.10
2023-05-19T22:30:47.429Z,15.38
2023-05-19T22:33:16.348Z,12.38
2023-05-19T22:35:45.467Z,14.27
2023-05-19T22:38:14.376Z,12.50
2023-05-19T22:40:43.328Z,13.82
2023-05-19T22:43:12.293Z,10.80
2023-05-19T22:45:41.325Z,16.40
2023-05-19T22:48:10.132Z,15.13
2023-05-19T22:50:39.135Z,17.63
2023-05-19T22:53:08.032Z,11.25
2023-05-19T22:55:37.053Z,12.57
2023-05-19T22:58:07.127Z,10.48
2023-05-19T23:00:36.029Z,9.55
2023-05-19T23:03:05.149Z,11.20
2023-05-19T23:05:34.039Z,11.07
2023-05-19T23:08:03.166Z,10.40
2023-05-19T23:10:32.192Z,10.63
2023-05-19T23:13:01.037Z,12.65
2023-05-19T23:15:29.866Z,14.15
2023-05-19T23:17:58.882Z,10.23
2023-05-19T23:20:27.850Z,11.35
2023-05-19T23:22:56.853Z,12.35
2023-05-19T23:25:25.759Z,12.32
2023-05-19T23:27:54.531Z,17.10
2023-05-19T23:30:23.512Z,11.75
2023-05-19T23:32:53.788Z,11.95
2023-05-19T23:35:23.295Z,19.70
2023-05-19T23:37:52.071Z,13.88
2023-05-19T23:40:20.951Z,13.80
2023-05-19T23:42:49.859Z,10.65
2023-05-19T23:45:18.861Z,13.38
2023-05-19T23:47:47.692Z,13.15
2023-05-19T23:50:16.714Z,11.48
2023-05-19T23:52:45.796Z,12.00
2023-05-19T23:55:15.817Z,11.82
2023-05-19T23:57:44.779Z,17.90
